Time;durP1;ratioP1;P1;durP2;ratioP2;P2;SDS_P1;SDS_P2;PMS_P1;PMS_P2;Temp;Humidity;BMP_temperature;BMP_pressure;BME280_temperature;BME280_humidity;BME280_pressure;Samples;Min_cycle;Max_cycle;Signal;HPM_P1;HPM_P2
2022/07/02 00:00:41;;;;;;;9.52;4.78;;;;;;;22.54;72.33;101080.84;5037070;28;20053;-57
2022/07/02 00:03:11;;;;;;;8.50;4.88;;;;;;;22.45;72.51;101084.84;5036926;28;20059;-57
2022/07/02 00:05:54;;;;;;;5.95;4.57;;;;;;;22.38;72.75;101099.28;5035552;28;20053;-57
2022/07/02 00:08:24;;;;;;;5.65;4.22;;;;;;;22.36;72.71;101103.78;5036716;28;20122;-57
2022/07/02 00:10:55;;;;;;;6.18;4.40;;;;;;;22.34;72.69;101095.06;5036803;28;20056;-56
2022/07/02 00:13:27;;;;;;;6.50;4.45;;;;;;;22.30;72.82;101093.53;5036631;28;20045;-57
2022/07/02 00:15:58;;;;;;;7.53;4.72;;;;;;;22.28;72.88;101084.81;5035902;28;20088;-57
2022/07/02 00:18:34;;;;;;;6.43;4.43;;;;;;;22.25;72.74;101085.00;5036619;28;20073;-57
2022/07/02 00:21:05;;;;;;;7.53;4.03;;;;;;;22.17;72.94;101093.31;5036118;28;20688;-57
2022/07/02 00:23:48;;;;;;;8.18;4.50;;;;;;;22.15;72.95;101094.31;5035904;28;20366;-57
2022/07/02 00:26:19;;;;;;;8.30;4.68;;;;;;;22.15;73.00;101107.53;5036356;28;20068;-57
2022/07/02 00:28:56;;;;;;;7.43;4.30;;;;;;;22.18;73.02;101099.44;5036104;28;20466;-57
2022/07/02 00:31:24;;;;;;;7.20;4.60;;;;;;;22.20;73.03;101098.44;5036239;28;20060;-57
2022/07/02 00:33:53;;;;;;;7.03;4.40;;;;;;;22.22;72.96;101101.00;5035281;28;20059;-57
2022/07/02 00:36:33;;;;;;;8.65;5.18;;;;;;;22.23;72.97;101097.41;5035894;28;20064;-56
2022/07/02 00:39:17;;;;;;;7.35;4.72;;;;;;;22.24;72.80;101109.69;5036308;28;20053;-57
2022/07/02 00:41:47;;;;;;;6.05;4.38;;;;;;;22.24;72.99;101120.25;5036455;28;20088;-57
2022/07/02 00:44:14;;;;;;;9.75;4.53;;;;;;;22.23;72.77;101118.53;5036020;28;20084;-57
2022/07/02 00:46:45;;;;;;;7.25;4.07;;;;;;;22.23;72.89;101114.13;5036271;28;20049;-57
2022/07/02 00:49:13;;;;;;;6.30;4.28;;;;;;;22.21;72.90;101100.13;5029174;28;20049;-57
2022/07/02 00:51:43;;;;;;;6.80;4.18;;;;;;;22.21;72.86;101099.28;5016256;28;20058;-57
2022/07/02 00:54:16;;;;;;;7.93;4.30;;;;;;;22.20;72.97;101092.28;5016252;28;20069;-57
2022/07/02 00:56:44;;;;;;;8.10;4.28;;;;;;;22.21;72.97;101094.84;5028034;28;20049;-57
2022/07/02 00:59:13;;;;;;;6.03;4.45;;;;;;;22.22;72.89;101087.78;5031354;28;20099;-57
2022/07/02 01:01:49;;;;;;;7.40;3.92;;;;;;;22.23;72.87;101086.84;5035545;28;20133;-56
2022/07/02 01:04:18;;;;;;;9.43;5.25;;;;;;;22.23;72.86;101086.84;5035692;28;20085;-55
2022/07/02 01:06:46;;;;;;;8.05;4.43;;;;;;;22.23;72.90;101097.41;5035608;28;20055;-56
2022/07/02 01:12:07;;;;;;;6.45;4.65;;;;;;;22.24;72.80;101101.75;5034792;28;20056;-57
2022/07/02 01:14:39;;;;;;;9.13;5.10;;;;;;;22.25;72.61;101090.28;5034456;28;20077;-58
2022/07/02 01:17:09;;;;;;;7.18;3.97;;;;;;;22.26;72.63;101102.53;5033901;28;20061;-57
2022/07/02 01:19:39;;;;;;;8.40;4.68;;;;;;;22.27;72.51;101101.59;5035032;28;20068;-58
2022/07/02 01:22:35;;;;;;;7.53;4.38;;;;;;;22.28;72.29;101101.53;5035142;28;20057;-58
2022/07/02 01:25:05;;;;;;;5.65;4.53;;;;;;;22.25;72.43;101101.69;5055471;28;20045;-57
2022/07/02 01:27:33;;;;;;;8.48;5.13;;;;;;;22.24;72.38;101104.41;5042030;28;20060;-58
2022/07/02 01:30:02;;;;;;;7.78;4.55;;;;;;;22.23;72.55;101107.97;5035498;28;20049;-58
2022/07/02 01:32:30;;;;;;;7.65;4.80;;;;;;;22.23;72.54;101107.97;5035108;28;20138;-58
2022/07/02 01:35:03;;;;;;;6.72;5.30;;;;;;;22.24;72.58;101105.25;5035168;28;20053;-58
2022/07/02 01:37:34;;;;;;;8.07;4.55;;;;;;;22.25;72.63;101106.97;5035036;28;20061;-58
2022/07/02 01:40:03;;;;;;;5.97;3.97;;;;;;;22.27;72.43;101112.16;5035059;28;20053;-57
2022/07/02 01:42:33;;;;;;;8.20;4.72;;;;;;;22.28;72.29;101114.72;5034571;28;20064;-57
2022/07/02 01:45:02;;;;;;;7.30;4.57;;;;;;;22.26;72.52;101123.66;5035157;28;20366;-56
2022/07/02 01:53:05;;;;;;;9.18;5.10;;;;;;;22.27;72.31;101135.94;5033448;28;20068;-57
2022/07/02 01:55:37;;;;;;;9.30;5.50;;;;;;;22.27;72.41;101139.44;5015701;28;20052;-58
2022/07/02 01:58:07;;;;;;;11.45;5.60;;;;;;;22.27;72.25;101143.84;5029386;28;20057;-58
2022/07/02 02:00:37;;;;;;;9.30;4.72;;;;;;;22.28;72.25;101156.13;5034552;28;20095;-58
2022/07/02 02:03:05;;;;;;;8.70;5.25;;;;;;;22.28;72.27;101153.50;5034842;28;20067;-58
2022/07/02 02:05:36;;;;;;;9.70;5.00;;;;;;;22.29;72.21;101157.84;5034603;28;20079;-56
2022/07/02 02:08:19;;;;;;;9.02;4.80;;;;;;;22.29;72.27;101157.84;5034209;28;20554;-58
2022/07/02 02:10:49;;;;;;;7.55;4.82;;;;;;;22.30;72.30;101165.69;5034149;28;20085;-58
2022/07/02 02:13:17;;;;;;;10.15;5.28;;;;;;;22.31;72.29;101169.19;5033403;28;20119;-57
2022/07/02 02:18:29;;;;;;;6.72;4.82;;;;;;;22.30;72.34;101178.03;5034417;28;20061;-58
2022/07/02 02:20:57;;;;;;;9.57;5.07;;;;;;;22.29;72.33;101182.47;5034075;28;20387;-58
2022/07/02 02:23:39;;;;;;;8.90;4.97;;;;;;;22.28;72.25;101186.03;5045532;28;20111;-56
2022/07/02 02:26:06;;;;;;;8.20;4.90;;;;;;;22.27;72.27;101189.59;5052599;28;20041;-58
2022/07/02 02:28:33;;;;;;;6.43;4.47;;;;;;;22.28;72.26;101190.47;5033255;28;20049;-56
2022/07/02 02:31:02;;;;;;;7.55;4.75;;;;;;;22.27;72.28;101188.75;5034530;28;20045;-58
2022/07/02 02:33:29;;;;;;;8.23;5.07;;;;;;;22.23;72.35;101177.50;5034755;28;20140;-56
2022/07/02 02:36:06;;;;;;;9.38;4.47;;;;;;;22.22;72.39;101181.06;5034545;28;20053;-56
2022/07/02 02:38:37;;;;;;;8.38;5.35;;;;;;;22.21;72.41;101178.50;5034387;28;20065;-57
2022/07/02 02:41:09;;;;;;;10.82;5.63;;;;;;;22.21;72.28;101178.50;5032442;28;20061;-56
2022/07/02 02:43:39;;;;;;;8.13;4.72;;;;;;;22.21;72.20;101183.78;5014347;28;20482;-57
2022/07/02 02:46:07;;;;;;;7.32;4.50;;;;;;;22.20;72.17;101180.28;5014834;28;20068;-57
2022/07/02 02:48:43;;;;;;;7.05;4.80;;;;;;;22.20;72.01;101182.06;5015659;28;20117;-57
2022/07/02 02:51:20;;;;;;;8.60;5.18;;;;;;;22.20;71.96;101195.28;5034230;28;20136;-57
2022/07/02 02:53:53;;;;;;;7.20;4.47;;;;;;;22.20;71.93;101197.91;5034237;28;20049;-56
2022/07/02 02:56:29;;;;;;;10.43;5.77;;;;;;;22.18;71.93;101195.34;5034518;28;20049;-58
2022/07/02 02:59:00;;;;;;;8.65;5.13;;;;;;;22.17;72.06;101195.41;5034070;28;20053;-57
2022/07/02 03:01:30;;;;;;;6.47;4.47;;;;;;;22.17;72.12;101193.63;5034006;28;20450;-57
2022/07/02 03:04:00;;;;;;;7.53;4.63;;;;;;;22.18;72.14;101194.50;5034192;28;20053;-57
2022/07/02 03:06:28;;;;;;;6.68;4.30;;;;;;;22.20;71.99;101187.34;5033922;28;20514;-57
2022/07/02 03:08:58;;;;;;;9.02;4.40;;;;;;;22.20;72.12;101182.94;5033930;28;20053;-58
2022/07/02 03:11:29;;;;;;;8.60;4.72;;;;;;;22.20;72.06;101177.66;5034337;28;20076;-57
2022/07/02 03:13:57;;;;;;;7.13;5.05;;;;;;;22.23;72.03;101179.28;5034201;28;20060;-57
2022/07/02 03:16:27;;;;;;;9.60;5.13;;;;;;;22.24;72.06;101173.06;5033651;28;20065;-57
2022/07/02 03:18:57;;;;;;;9.85;5.50;;;;;;;22.24;72.03;101170.41;5033978;28;20053;-56
2022/07/02 03:21:25;;;;;;;8.57;5.22;;;;;;;22.24;71.99;101175.69;5034238;28;20049;-56
2022/07/02 03:23:52;;;;;;;9.05;5.63;;;;;;;22.26;72.15;101179.13;5047585;28;20051;-56
2022/07/02 03:26:29;;;;;;;8.63;4.80;;;;;;;22.28;72.13;101174.63;5049806;28;20053;-57
2022/07/02 03:28:59;;;;;;;8.95;5.22;;;;;;;22.29;72.19;101171.03;5033959;28;20049;-57
2022/07/02 03:31:29;;;;;;;9.52;5.55;;;;;;;22.28;72.28;101177.25;5034061;28;20064;-56
2022/07/02 03:36:41;;;;;;;7.93;3.55;;;;;;;22.21;72.65;101173.22;5033713;28;20053;-57
2022/07/02 03:39:12;;;;;;;3.92;2.33;;;;;;;22.09;72.70;101174.69;5033204;28;20061;-57
2022/07/02 03:41:45;;;;;;;3.40;1.77;;;;;;;21.97;72.65;101169.97;5032817;28;20265;-56
2022/07/02 03:44:12;;;;;;;2.25;0.90;;;;;;;21.89;72.81;101157.16;5033315;28;20049;-55
2022/07/02 03:46:39;;;;;;;1.38;0.60;;;;;;;21.82;72.52;101161.00;5032939;28;20053;-53
2022/07/02 03:49:14;;;;;;;1.90;0.80;;;;;;;21.74;72.42;101157.88;5033011;28;20057;-57
2022/07/02 03:51:45;;;;;;;0.93;0.50;;;;;;;21.67;72.38;101167.88;5033324;28;20053;-57
2022/07/02 03:54:15;;;;;;;2.88;0.40;;;;;;;21.64;72.15;101193.53;5033377;28;20057;-57
2022/07/02 03:56:51;;;;;;;1.15;0.30;;;;;;;21.62;72.30;101200.66;5033206;28;20700;-57
2022/07/02 03:59:21;;;;;;;0.98;0.30;;;;;;;21.55;71.64;101204.53;5033621;28;20149;-56
2022/07/02 04:01:50;;;;;;;0.60;0.30;;;;;;;21.48;71.59;101211.00;5032961;28;20773;-56
2022/07/02 04:04:17;;;;;;;0.65;0.20;;;;;;;21.47;71.54;101217.22;5033108;28;20049;-56
2022/07/02 04:06:46;;;;;;;2.17;0.28;;;;;;;21.46;71.63;101211.09;5033273;28;20067;-54
2022/07/02 04:09:19;;;;;;;0.30;0.20;;;;;;;21.44;71.48;101217.34;5032854;28;20115;-56
2022/07/02 04:11:50;;;;;;;0.25;0.20;;;;;;;21.37;71.25;101201.81;5032855;28;20049;-57
2022/07/02 04:14:19;;;;;;;2.63;0.30;;;;;;;21.35;71.47;101193.13;5033109;28;20072;-57
2022/07/02 04:16:56;;;;;;;0.38;0.25;;;;;;;21.28;71.29;101202.19;5032839;28;20065;-57
2022/07/02 04:19:23;;;;;;;0.63;0.20;;;;;;;21.20;70.86;101217.47;5013343;28;20054;-57
2022/07/02 04:21:52;;;;;;;0.20;0.10;;;;;;;21.17;70.84;101222.91;5013155;28;20053;-53
2022/07/02 04:24:23;;;;;;;0.70;0.20;;;;;;;21.12;70.50;101211.69;5048558;28;20045;-57
2022/07/02 04:26:53;;;;;;;0.52;0.20;;;;;;;21.03;70.60;101222.66;5044761;28;20057;-56
2022/07/02 04:29:20;;;;;;;1.95;0.10;;;;;;;21.00;70.88;101231.56;5033156;28;20049;-56
2022/07/02 04:31:50;;;;;;;0.28;0.15;;;;;;;21.06;70.76;101248.88;5032835;28;20064;-57
2022/07/02 04:34:18;;;;;;;0.10;0.10;;;;;;;21.07;70.49;101253.22;5034357;28;20151;-55
2022/07/02 04:36:48;;;;;;;3.10;0.20;;;;;;;21.05;70.31;101247.16;5036934;28;20053;-55
2022/07/02 04:39:18;;;;;;;1.50;0.25;;;;;;;21.05;70.34;101262.97;5036827;28;20053;-55
2022/07/02 04:41:45;;;;;;;1.90;0.20;;;;;;;21.02;69.98;101268.38;5036938;28;20049;-54
2022/07/02 04:44:18;;;;;;;0.77;0.17;;;;;;;20.99;70.08;101271.16;5036880;28;20050;-57
2022/07/02 04:46:55;;;;;;;0.20;0.20;;;;;;;20.92;69.72;101273.19;5036997;28;20053;-57
2022/07/02 04:49:22;;;;;;;0.15;0.10;;;;;;;20.88;69.54;101270.75;5036383;28;20367;-57
2022/07/02 04:51:52;;;;;;;0.55;0.20;;;;;;;20.79;69.63;101280.75;5036199;28;20495;-57
2022/07/02 04:54:21;;;;;;;0.40;0.30;;;;;;;20.72;69.08;101276.66;5036737;28;20049;-57
2022/07/02 04:56:49;;;;;;;1.20;0.40;;;;;;;20.64;69.04;101299.81;5036487;28;20132;-55
2022/07/02 04:59:24;;;;;;;2.42;0.20;;;;;;;20.54;68.79;101301.13;5036768;28;20057;-57
2022/07/02 05:04:35;;;;;;;1.35;0.30;;;;;;;20.36;68.80;101312.38;5036291;28;20081;-57
2022/07/02 05:07:03;;;;;;;0.73;0.40;;;;;;;20.27;68.87;101299.53;5036145;28;20107;-57
2022/07/02 05:09:32;;;;;;;1.88;0.40;;;;;;;20.22;68.85;101322.56;5036299;28;20103;-56
2022/07/02 05:12:02;;;;;;;1.27;0.45;;;;;;;20.17;68.70;101323.59;5036103;28;20067;-57
2022/07/02 05:14:32;;;;;;;3.40;0.52;;;;;;;20.11;68.38;101336.13;5035969;28;20060;-56
2022/07/02 05:17:02;;;;;;;1.42;0.55;;;;;;;19.99;68.35;101329.56;5035027;28;20518;-57
2022/07/02 05:19:30;;;;;;;1.83;0.55;;;;;;;19.90;68.40;101327.28;5035770;28;20053;-56
2022/07/02 05:21:58;;;;;;;2.30;0.68;;;;;;;19.82;68.44;101334.63;5035760;28;20049;-55
2022/07/02 05:27:07;;;;;;;2.13;0.60;;;;;;;19.73;68.49;101335.78;5045191;28;20558;-56
2022/07/02 05:29:38;;;;;;;2.38;0.60;;;;;;;19.70;68.53;101335.03;5035828;28;20059;-56
2022/07/02 05:32:07;;;;;;;3.58;0.90;;;;;;;19.71;68.62;101334.13;5015606;28;20077;-57
2022/07/02 05:34:35;;;;;;;3.15;0.70;;;;;;;19.68;68.62;101352.66;5015236;28;20628;-56
2022/07/02 05:37:12;;;;;;;0.88;0.50;;;;;;;19.66;68.52;101360.59;5014235;28;20050;-57
2022/07/02 05:39:40;;;;;;;4.72;0.60;;;;;;;19.69;68.41;101370.16;5021906;28;20053;-57
2022/07/02 05:42:09;;;;;;;0.95;0.55;;;;;;;19.72;68.15;101375.31;5035194;28;20082;-57
2022/07/02 05:44:51;;;;;;;1.05;0.45;;;;;;;19.77;67.93;101383.88;5034755;28;20049;-56
2022/07/02 05:47:21;;;;;;;4.03;0.90;;;;;;;19.83;67.71;101396.84;5014935;28;20137;-57
2022/07/02 05:49:49;;;;;;;1.80;0.60;;;;;;;19.87;67.55;101402.84;5015610;28;20064;-57
2022/07/02 05:52:17;;;;;;;1.45;0.70;;;;;;;19.91;67.23;101413.22;5014574;28;20050;-57
2022/07/02 05:54:44;;;;;;;3.42;0.75;;;;;;;19.96;67.23;101413.03;5014517;28;20057;-57
2022/07/02 06:00:06;;;;;;;3.30;0.50;;;;;;;19.94;67.07;101436.78;5014964;28;20058;-57
2022/07/02 06:02:36;;;;;;;1.65;0.60;;;;;;;19.94;67.40;101444.66;5027762;28;20057;-57
2022/07/02 06:07:38;;;;;;;4.05;0.70;;;;;;;19.98;67.50;101455.94;5034923;28;20049;-57
2022/07/02 06:07:53;;;;;;;3.75;0.70;;;;;;;19.98;68.90;101458.56;5034591;28;20482;-56
2022/07/02 06:10:21;;;;;;;3.72;0.93;;;;;;;19.96;68.67;101463.88;5034692;28;20049;-57
2022/07/02 06:12:50;;;;;;;2.63;0.75;;;;;;;19.94;68.78;101460.47;5034596;28;20152;-57
2022/07/02 06:15:32;;;;;;;3.53;1.10;;;;;;;19.93;68.96;101463.13;5034529;28;20049;-57
2022/07/02 06:18:03;;;;;;;4.07;0.80;;;;;;;19.93;69.52;101485.06;5034051;28;20140;-57
2022/07/02 06:20:40;;;;;;;3.70;0.90;;;;;;;19.93;69.57;101490.31;5034617;28;20157;-57
2022/07/02 06:23:10;;;;;;;2.85;0.73;;;;;;;19.95;69.78;101480.59;5035652;28;20394;-57
2022/07/02 06:25:38;;;;;;;2.65;0.90;;;;;;;19.93;69.67;101468.41;5033970;28;20049;-57
2022/07/02 06:28:05;;;;;;;3.78;0.75;;;;;;;19.89;69.89;101483.44;5033406;28;20067;-58
2022/07/02 06:30:40;;;;;;;3.20;0.65;;;;;;;19.90;70.16;101485.16;5034245;28;20067;-57
2022/07/02 06:33:11;;;;;;;1.42;0.63;;;;;;;19.89;70.25;101488.72;5034412;28;20057;-57
2022/07/02 06:35:40;;;;;;;2.65;0.60;;;;;;;19.91;70.33;101501.81;5034339;28;20506;-57
2022/07/02 06:38:11;;;;;;;1.65;0.52;;;;;;;19.93;70.46;101521.88;5049302;28;20458;-58
2022/07/02 06:40:41;;;;;;;3.95;0.70;;;;;;;19.93;70.36;101521.03;5035272;28;20045;-59
2022/07/02 06:43:11;;;;;;;1.75;0.60;;;;;;;19.96;70.39;101521.78;5034687;28;20328;-59
2022/07/02 06:45:47;;;;;;;2.53;0.85;;;;;;;19.99;70.34;101529.56;5040994;28;20494;-58
2022/07/02 06:48:17;;;;;;;4.60;0.70;;;;;;;20.05;70.74;101537.25;5032967;28;20057;-58
2022/07/02 06:50:48;;;;;;;2.10;0.90;;;;;;;20.08;70.75;101541.53;5032959;28;20439;-59
2022/07/02 06:53:18;;;;;;;0.70;0.50;;;;;;;20.11;70.83;101542.28;5033287;28;20053;-56
2022/07/02 06:55:48;;;;;;;2.17;0.88;;;;;;;20.13;70.76;101548.34;5027892;28;20056;-59
2022/07/02 06:58:14;;;;;;;1.13;0.50;;;;;;;20.17;70.97;101531.53;5024681;28;20537;-58
2022/07/02 07:00:43;;;;;;;2.85;0.85;;;;;;;20.21;70.90;101526.16;5035118;28;20057;-57
2022/07/02 07:03:14;;;;;;;2.15;0.60;;;;;;;20.16;70.57;101514.03;5036950;28;20073;-57
2022/07/02 07:05:47;;;;;;;2.25;0.70;;;;;;;20.11;70.77;101510.72;5037784;28;20045;-57
2022/07/02 07:08:16;;;;;;;1.23;0.63;;;;;;;20.10;70.63;101519.53;5051161;28;20441;-58
2022/07/02 07:10:46;;;;;;;2.17;0.75;;;;;;;20.05;70.38;101534.63;5040028;28;20342;-58
2022/07/02 07:13:15;;;;;;;0.95;0.43;;;;;;;20.01;70.51;101551.44;5033118;28;20128;-58
2022/07/02 07:15:45;;;;;;;1.08;0.50;;;;;;;19.98;70.53;101567.31;5032195;28;20532;-56
2022/07/02 07:18:12;;;;;;;1.42;0.60;;;;;;;19.99;70.75;101590.09;5027786;28;20148;-57
2022/07/02 07:20:42;;;;;;;2.17;0.73;;;;;;;20.05;70.69;101595.16;5030981;28;20555;-57
2022/07/02 07:23:12;;;;;;;0.82;0.50;;;;;;;20.07;70.57;101589.81;5025561;28;20060;-58
2022/07/02 07:25:42;;;;;;;1.38;0.60;;;;;;;20.07;70.30;101584.56;5032315;28;20056;-57
2022/07/02 07:28:12;;;;;;;2.20;0.88;;;;;;;20.03;70.01;101570.66;5032255;28;20536;-57
2022/07/02 07:33:34;;;;;;;1.90;0.60;;;;;;;19.97;70.26;101559.47;5032667;28;20486;-58
2022/07/02 07:36:03;;;;;;;3.20;1.30;;;;;;;19.97;70.43;101573.50;5020536;28;20047;-57
2022/07/02 07:38:29;;;;;;;2.38;0.90;;;;;;;20.00;70.65;101581.28;5030559;28;20049;-59
2022/07/02 07:40:56;;;;;;;3.35;0.93;;;;;;;20.06;70.83;101607.38;5030764;28;20528;-58
2022/07/02 07:43:24;;;;;;;1.85;0.80;;;;;;;20.14;70.80;101615.03;5030716;28;20053;-58
2022/07/02 07:45:51;;;;;;;3.05;0.77;;;;;;;20.18;70.90;101625.41;5028938;28;20257;-57
2022/07/02 07:48:18;;;;;;;2.08;1.02;;;;;;;20.25;70.61;101633.06;5031710;28;20151;-57
2022/07/02 07:50:49;;;;;;;3.80;0.85;;;;;;;20.27;70.49;101632.13;5031788;28;20057;-57
2022/07/02 07:53:18;;;;;;;1.65;0.90;;;;;;;20.31;70.67;101659.22;5031503;28;20049;-57
2022/07/02 07:55:48;;;;;;;3.65;0.75;;;;;;;20.37;70.87;101659.00;5030871;28;20049;-58
2022/07/02 07:58:16;;;;;;;2.58;0.90;;;;;;;20.41;70.99;101650.13;5032470;28;20049;-59
2022/07/02 08:00:52;;;;;;;1.88;0.68;;;;;;;20.45;71.01;101647.34;5031871;28;20049;-59
2022/07/02 08:03:20;;;;;;;1.83;0.70;;;;;;;20.46;70.95;101649.06;5032320;28;20141;-58
2022/07/02 08:06:02;;;;;;;1.30;0.88;;;;;;;20.45;71.08;101654.38;5031843;28;20054;-58
2022/07/02 08:08:33;;;;;;;2.50;0.85;;;;;;;20.43;71.07;101666.72;5031271;28;20085;-59
2022/07/02 08:11:02;;;;;;;2.75;1.08;;;;;;;20.45;71.07;101667.53;5035335;28;20132;-56
2022/07/02 08:13:36;;;;;;;2.83;0.90;;;;;;;20.46;71.14;101674.53;5034430;28;20068;-59
2022/07/02 08:16:05;;;;;;;1.85;1.00;;;;;;;20.48;71.10;101654.25;5033824;28;20041;-58
2022/07/02 08:18:35;;;;;;;2.28;1.10;;;;;;;20.50;71.22;101649.81;5034441;28;20053;-58
2022/07/02 08:21:06;;;;;;;2.80;1.10;;;;;;;20.52;71.23;101663.78;5036751;28;20053;-57
2022/07/02 08:23:35;;;;;;;2.55;1.10;;;;;;;20.55;71.11;101662.81;5048326;28;20059;-57
2022/07/02 08:26:03;;;;;;;1.70;1.00;;;;;;;20.58;71.17;101668.81;5054786;28;20053;-57
2022/07/02 08:28:34;;;;;;;2.22;0.90;;;;;;;20.63;71.13;101677.44;5015963;28;20045;-57
2022/07/02 08:31:09;;;;;;;1.25;0.75;;;;;;;20.67;71.02;101679.03;5016132;28;20504;-57
2022/07/02 08:33:38;;;;;;;2.13;1.08;;;;;;;20.70;71.06;101673.66;5017455;28;20080;-58
2022/07/02 08:36:12;;;;;;;2.45;1.05;;;;;;;20.74;70.79;101670.00;5036208;28;20045;-57
2022/07/02 08:38:39;;;;;;;1.90;1.10;;;;;;;20.76;70.86;101665.53;5036050;28;20072;-57
2022/07/02 08:41:13;;;;;;;1.98;0.80;;;;;;;20.87;71.08;101680.13;5032904;28;20148;-57
2022/07/02 08:43:47;;;;;;;1.50;1.00;;;;;;;20.99;71.13;101671.75;5037768;28;20390;-58
2022/07/02 08:46:17;;;;;;;1.70;0.90;;;;;;;21.10;71.13;101682.75;5036014;28;20049;-58
2022/07/02 08:48:49;;;;;;;2.67;1.30;;;;;;;21.23;70.60;101677.94;5036196;28;20053;-58
2022/07/02 08:51:23;;;;;;;2.92;0.98;;;;;;;21.35;70.40;101683.63;5036067;28;20069;-58
2022/07/02 08:53:54;;;;;;;2.17;0.90;;;;;;;21.53;70.26;101684.69;5035980;28;20042;-58
2022/07/02 08:56:32;;;;;;;1.98;1.13;;;;;;;21.75;69.76;101682.06;5035888;28;20064;-58
2022/07/02 08:59:10;;;;;;;4.70;1.20;;;;;;;21.93;68.84;101676.06;5035503;28;20466;-58
2022/07/02 09:01:39;;;;;;;2.53;1.05;;;;;;;22.14;68.55;101676.13;5030940;28;20045;-58
2022/07/02 09:04:12;;;;;;;5.18;1.10;;;;;;;22.37;67.50;101681.28;5027847;28;20466;-58
2022/07/02 09:06:57;;;;;;;6.15;1.38;;;;;;;;;;5035846;28;20132;-54
2022/07/02 09:09:30;;;;;;;3.38;1.00;;;;;;;22.57;66.16;101693.66;5035945;28;20045;-56
2022/07/02 09:12:03;;;;;;;2.92;0.90;;;;;;;22.66;65.65;101686.19;5035963;28;20132;-55
2022/07/02 09:14:40;;;;;;;2.35;0.82;;;;;;;22.76;64.88;101691.06;5035432;28;20525;-58
2022/07/02 09:17:12;;;;;;;3.17;1.00;;;;;;;22.83;64.14;101688.13;5017418;28;20155;-58
2022/07/02 09:19:50;;;;;;;2.45;0.80;;;;;;;22.91;64.00;101695.72;5035204;28;20064;-57
2022/07/02 09:22:40;;;;;;;2.58;0.80;;;;;;;23.00;63.15;101708.53;5036291;28;20053;-58
2022/07/02 09:25:11;;;;;;;1.77;0.70;;;;;;;23.09;62.87;101712.56;5015788;28;20103;-58
2022/07/02 09:27:38;;;;;;;2.25;1.10;;;;;;;23.17;62.16;101716.56;5030308;28;20053;-57
2022/07/02 09:30:23;;;;;;;2.47;0.90;;;;;;;23.29;61.83;101721.28;5035124;28;20045;-57
2022/07/02 09:33:28;;;;;;;2.38;1.10;;;;;;;23.49;61.94;101714.25;5035013;28;20161;-57
2022/07/02 09:35:46;;;;;;;2.83;1.00;;;;;;;23.68;61.22;101722.19;5034562;28;20053;-57
2022/07/02 09:38:18;;;;;;;2.45;0.80;;;;;;;23.85;60.31;101716.94;5035257;28;20061;-57
2022/07/02 09:41:01;;;;;;;2.38;1.00;;;;;;;23.97;60.02;101723.47;5034925;28;20045;-57
2022/07/02 09:43:32;;;;;;;3.97;0.80;;;;;;;24.08;58.88;101722.00;5034967;28;20112;-57
2022/07/02 09:46:04;;;;;;;2.13;0.88;;;;;;;24.20;58.30;101720.53;5034366;28;20099;-55
2022/07/02 09:48:31;;;;;;;3.00;0.90;;;;;;;24.41;57.73;101718.63;5034803;28;20061;-53
2022/07/02 09:51:05;;;;;;;1.63;0.98;;;;;;;24.59;56.34;101723.03;5034291;28;20049;-54
2022/07/02 09:53:36;;;;;;;3.60;1.10;;;;;;;24.70;55.67;101709.22;5034270;28;20064;-53
2022/07/02 09:56:05;;;;;;;3.05;0.80;;;;;;;24.85;54.98;101714.56;5034682;28;20128;-55
2022/07/02 09:58:34;;;;;;;1.27;0.65;;;;;;;24.99;54.38;101721.84;5034487;28;20053;-56
2022/07/02 10:01:07;;;;;;;3.08;0.85;;;;;;;25.11;53.40;101725.63;5033477;28;20050;-58
2022/07/02 10:03:50;;;;;;;3.05;0.80;;;;;;;25.17;52.08;101720.00;5034557;28;20055;-57
2022/07/02 10:06:18;;;;;;;1.85;0.60;;;;;;;25.27;51.95;101730.97;5033773;28;20045;-57
2022/07/02 10:08:50;;;;;;;1.90;0.70;;;;;;;25.45;51.27;101735.28;5034451;28;20053;-57
2022/07/02 10:11:21;;;;;;;3.05;0.80;;;;;;;25.61;51.02;101736.16;5033959;28;20053;-57
2022/07/02 10:13:52;;;;;;;3.63;0.70;;;;;;;25.78;50.60;101744.06;5034621;28;20056;-58
2022/07/02 10:16:24;;;;;;;3.85;0.88;;;;;;;25.94;50.09;101744.06;5033987;28;20064;-55
2022/07/02 10:18:55;;;;;;;5.22;0.70;;;;;;;26.04;48.87;101739.09;5033799;28;20386;-56
2022/07/02 10:21:25;;;;;;;4.85;0.60;;;;;;;26.09;48.38;101747.66;5034191;28;20053;-53
2022/07/02 10:24:01;;;;;;;1.77;0.50;;;;;;;26.15;47.57;101742.00;5048819;28;20049;-56
2022/07/02 10:26:31;;;;;;;3.20;0.60;;;;;;;26.25;47.69;101747.63;5048853;28;20052;-54
2022/07/02 10:29:02;;;;;;;4.80;0.90;;;;;;;26.35;47.63;101755.00;5034142;28;20057;-56
2022/07/02 10:31:38;;;;;;;3.35;0.77;;;;;;;26.40;47.44;101752.94;5034180;28;20054;-55
2022/07/02 10:34:19;;;;;;;6.65;0.52;;;;;;;26.45;47.34;101754.47;5033596;28;20461;-57
2022/07/02 10:36:49;;;;;;;1.30;0.75;;;;;;;26.50;46.95;101763.03;5032724;28;20045;-57
2022/07/02 10:39:20;;;;;;;2.47;0.73;;;;;;;26.51;46.25;101746.13;5033653;28;20473;-57
2022/07/02 10:41:49;;;;;;;3.70;0.77;;;;;;;26.53;46.33;101754.88;5033856;28;20086;-57
2022/07/02 10:44:17;;;;;;;1.77;0.60;;;;;;;26.55;45.91;101760.97;5031219;28;20052;-58
2022/07/02 10:46:49;;;;;;;2.33;0.60;;;;;;;26.51;45.11;101751.44;5030510;28;20136;-57
2022/07/02 10:49:25;;;;;;;4.00;0.60;;;;;;;26.50;45.38;101763.03;5030701;28;20061;-56
2022/07/02 10:51:57;;;;;;;2.55;0.70;;;;;;;26.48;44.94;101762.25;5032820;28;20481;-56
2022/07/02 10:54:35;;;;;;;1.52;0.50;;;;;;;26.45;44.82;101759.78;5032391;28;20076;-58
2022/07/02 10:57:03;;;;;;;6.80;1.20;;;;;;;26.47;45.32;101757.88;5033239;28;20112;-56
2022/07/02 10:59:39;;;;;;;1.27;0.60;;;;;;;26.52;45.14;101751.34;5033164;28;20049;-58
2022/07/02 11:02:08;;;;;;;1.60;0.50;;;;;;;26.57;44.97;101751.97;5037097;28;20076;-58
2022/07/02 11:04:39;;;;;;;4.55;0.80;;;;;;;26.63;45.62;101742.75;5032531;28;20054;-57
2022/07/02 11:07:11;;;;;;;1.35;0.50;;;;;;;26.67;45.36;101746.94;5033387;28;20134;-57
2022/07/02 11:09:57;;;;;;;2.40;0.50;;;;;;;26.66;44.13;101743.44;5013836;28;20124;-57
2022/07/02 11:13:00;;;;;;;3.65;0.70;;;;;;;26.69;44.25;101748.56;5013915;28;20093;-57
2022/07/02 11:15:38;;;;;;;3.50;0.70;;;;;;;26.73;44.08;101738.59;5018698;28;20049;-57
2022/07/02 11:18:16;;;;;;;3.03;0.45;;;;;;;26.77;43.84;101745.44;5031306;28;20095;-57
2022/07/02 11:20:45;;;;;;;2.65;0.50;;;;;;;26.80;44.37;101753.25;5032375;28;20085;-56
2022/07/02 11:23:19;;;;;;;2.22;0.77;;;;;;;26.84;44.62;101744.13;5041037;28;20041;-57
2022/07/02 11:25:52;;;;;;;2.60;0.75;;;;;;;26.85;44.61;101743.19;5051741;28;20056;-57
2022/07/02 11:28:21;;;;;;;6.38;0.63;;;;;;;26.84;44.40;101744.13;5012156;28;20053;-57
2022/07/02 11:30:58;;;;;;;3.75;1.00;;;;;;;26.87;43.78;101749.25;5012141;28;20064;-57
2022/07/02 11:33:27;;;;;;;2.00;0.68;;;;;;;26.85;44.10;101748.50;5031606;28;20053;-58
2022/07/02 11:35:57;;;;;;;5.47;0.75;;;;;;;26.85;44.29;101747.63;5030841;28;20045;-58
2022/07/02 11:38:27;;;;;;;1.17;0.60;;;;;;;26.89;43.79;101747.34;5032035;28;20124;-58
2022/07/02 11:40:57;;;;;;;4.82;0.50;;;;;;;26.97;43.80;101747.75;5030782;28;20057;-58
2022/07/02 11:43:24;;;;;;;4.88;0.90;;;;;;;27.02;43.92;101744.84;5031758;28;20057;-57
2022/07/02 11:45:54;;;;;;;3.42;0.80;;;;;;;27.03;43.15;101751.88;5030549;28;20096;-57
2022/07/02 11:48:24;;;;;;;1.90;0.70;;;;;;;26.99;43.60;101751.19;5029351;28;20049;-53
2022/07/02 11:50:59;;;;;;;2.90;0.60;;;;;;;26.95;44.14;101752.31;5027980;28;20045;-57
2022/07/02 11:53:35;;;;;;;3.35;0.65;;;;;;;26.96;44.08;101740.72;5029495;28;20057;-59
2022/07/02 11:56:18;;;;;;;1.63;0.65;;;;;;;26.98;44.85;101752.16;5024466;28;20621;-58
2022/07/02 11:58:49;;;;;;;2.45;0.68;;;;;;;27.01;44.80;101738.66;5012792;28;20108;-55
2022/07/02 12:01:28;;;;;;;4.32;0.90;;;;;;;27.06;44.21;101750.84;5050372;28;20060;-57
2022/07/02 12:03:57;;;;;;;3.72;0.98;;;;;;;27.02;44.08;101751.00;5032395;28;20055;-57
2022/07/02 12:06:28;;;;;;;3.03;0.52;;;;;;;27.00;43.88;101752.06;5032551;28;20060;-57
2022/07/02 12:09:05;;;;;;;1.05;0.50;;;;;;;26.94;43.30;101755.91;5032670;28;20053;-57
2022/07/02 12:11:42;;;;;;;2.08;0.55;;;;;;;26.78;43.37;101757.78;5032109;28;20060;-55